Longue-Pointe, Canada
Current Conditions -  °F | °C
As of 1:26 PM on Monday 26 Jan 2015 (Local Time) from CYGV Reporting Station
Light Snow Light Snow  
Wind Chill: -22°   Ceiling: Unl
Heat Index: -2°   Visibility: 1mi
Dew Point: -11°   Wind: 15mph
Humidity: 66%   Direction: 290°WNW
Pressure: 30.03"   Gusts: NA
Location:  50.27°N, 64.15°W
Report Text: CYGV 261826Z AUTO 29013KT 1SM -SN CLR M19/M24 A3003 RMK SLP172
Loading
Personal Weather Stations






























Interactive Weather Map New forecast layout! Learn more

10-Day Weather Forecast

Advertisements
Track Severe Weather on mobile